sensor_id;sensor_type;location;lat;lon;timestamp;pressure;altitude;pressure_sealevel;temperature;humidity
23303;BME280;11820;48.738;9.092;2022-07-12T00:02:23;96936.53;;;17.61;nan
23303;BME280;11820;48.738;9.092;2022-07-12T00:04:51;96931.81;;;17.70;nan
23303;BME280;11820;48.738;9.092;2022-07-12T00:07:17;96927.72;;;17.74;nan
23303;BME280;11820;48.738;9.092;2022-07-12T00:09:42;96929.31;;;17.75;nan
23303;BME280;11820;48.738;9.092;2022-07-12T00:12:08;96949.75;;;17.66;nan
23303;BME280;11820;48.738;9.092;2022-07-12T00:14:34;96943.31;;;17.51;nan
23303;BME280;11820;48.738;9.092;2022-07-12T00:16:59;96946.31;;;17.36;nan
23303;BME280;11820;48.738;9.092;2022-07-12T00:19:25;96950.41;;;17.26;nan
23303;BME280;11820;48.738;9.092;2022-07-12T00:21:50;96950.34;;;17.32;nan
23303;BME280;11820;48.738;9.092;2022-07-12T00:24:15;96946.31;;;17.36;nan
23303;BME280;11820;48.738;9.092;2022-07-12T00:26:41;96947.31;;;17.35;nan
23303;BME280;11820;48.738;9.092;2022-07-12T00:29:06;96942.09;;;17.35;nan
23303;BME280;11820;48.738;9.092;2022-07-12T00:31:32;96940.50;;;17.34;nan
23303;BME280;11820;48.738;9.092;2022-07-12T00:34:00;96949.94;;;17.35;nan
23303;BME280;11820;48.738;9.092;2022-07-12T00:36:25;96950.50;;;17.37;nan
23303;BME280;11820;48.738;9.092;2022-07-12T00:38:51;96953.00;;;17.08;nan
23303;BME280;11820;48.738;9.092;2022-07-12T00:41:16;96954.97;;;17.12;nan
23303;BME280;11820;48.738;9.092;2022-07-12T00:43:42;96953.25;;;17.24;nan
23303;BME280;11820;48.738;9.092;2022-07-12T00:46:07;96951.56;;;17.30;nan
23303;BME280;11820;48.738;9.092;2022-07-12T00:48:34;96948.22;;;17.23;nan
23303;BME280;11820;48.738;9.092;2022-07-12T00:51:01;96947.59;;;17.27;nan
23303;BME280;11820;48.738;9.092;2022-07-12T00:53:26;96944.59;;;17.06;nan
23303;BME280;11820;48.738;9.092;2022-07-12T00:55:57;96942.63;;;17.19;nan
23303;BME280;11820;48.738;9.092;2022-07-12T00:58:26;96950.50;;;17.37;nan
23303;BME280;11820;48.738;9.092;2022-07-12T01:00:55;96947.47;;;17.40;nan
23303;BME280;11820;48.738;9.092;2022-07-12T01:03:21;96950.41;;;17.26;nan
23303;BME280;11820;48.738;9.092;2022-07-12T01:05:46;96956.56;;;17.13;nan
23303;BME280;11820;48.738;9.092;2022-07-12T01:08:12;96956.81;;;17.12;nan
23303;BME280;11820;48.738;9.092;2022-07-12T01:10:39;96955.13;;;16.99;nan
23303;BME280;11820;48.738;9.092;2022-07-12T01:13:04;96952.50;;;17.17;nan
23303;BME280;11820;48.738;9.092;2022-07-12T01:15:30;96950.63;;;17.06;nan
23303;BME280;11820;48.738;9.092;2022-07-12T01:17:56;96946.81;;;16.84;nan
23303;BME280;11820;48.738;9.092;2022-07-12T01:20:22;96953.16;;;16.95;nan
23303;BME280;11820;48.738;9.092;2022-07-12T01:22:53;96955.84;;;17.06;nan
23303;BME280;11820;48.738;9.092;2022-07-12T01:25:19;96956.88;;;17.05;nan
23303;BME280;11820;48.738;9.092;2022-07-12T01:27:44;96957.59;;;17.12;nan
23303;BME280;11820;48.738;9.092;2022-07-12T01:30:10;96958.66;;;17.05;nan
23303;BME280;11820;48.738;9.092;2022-07-12T01:32:36;96955.25;;;16.86;nan
23303;BME280;11820;48.738;9.092;2022-07-12T01:35:03;96960.47;;;16.86;nan
23303;BME280;11820;48.738;9.092;2022-07-12T01:37:33;96954.16;;;16.94;nan
23303;BME280;11820;48.738;9.092;2022-07-12T01:39:59;96948.44;;;17.03;nan
23303;BME280;11820;48.738;9.092;2022-07-12T01:42:26;96956.41;;;16.90;nan
23303;BME280;11820;48.738;9.092;2022-07-12T01:44:53;96960.25;;;16.88;nan
23303;BME280;11820;48.738;9.092;2022-07-12T01:47:22;96955.91;;;16.57;nan
23303;BME280;11820;48.738;9.092;2022-07-12T01:49:48;96954.88;;;16.58;nan
23303;BME280;11820;48.738;9.092;2022-07-12T01:52:14;96949.81;;;16.63;nan
23303;BME280;11820;48.738;9.092;2022-07-12T01:54:40;96946.72;;;16.73;nan
23303;BME280;11820;48.738;9.092;2022-07-12T01:57:06;96942.75;;;16.88;nan
23303;BME280;11820;48.738;9.092;2022-07-12T01:59:32;96941.97;;;16.88;nan
23303;BME280;11820;48.738;9.092;2022-07-12T02:01:58;96944.16;;;16.66;nan
23303;BME280;11820;48.738;9.092;2022-07-12T02:04:23;96935.97;;;16.81;nan
23303;BME280;11820;48.738;9.092;2022-07-12T02:06:49;96941.53;;;16.91;nan
23303;BME280;11820;48.738;9.092;2022-07-12T02:09:16;96946.47;;;16.99;nan
23303;BME280;11820;48.738;9.092;2022-07-12T02:11:42;96948.34;;;16.92;nan
23303;BME280;11820;48.738;9.092;2022-07-12T02:14:08;96942.63;;;17.01;nan
23303;BME280;11820;48.738;9.092;2022-07-12T02:16:34;96947.06;;;17.01;nan
23303;BME280;11820;48.738;9.092;2022-07-12T02:18:59;96946.72;;;16.73;nan
23303;BME280;11820;48.738;9.092;2022-07-12T02:21:25;96943.91;;;16.74;nan
23303;BME280;11820;48.738;9.092;2022-07-12T02:23:50;96947.00;;;16.83;nan
23303;BME280;11820;48.738;9.092;2022-07-12T02:26:15;96937.38;;;16.83;nan
23303;BME280;11820;48.738;9.092;2022-07-12T02:28:41;96942.56;;;16.65;nan
23303;BME280;11820;48.738;9.092;2022-07-12T02:31:07;96942.84;;;16.57;nan
23303;BME280;11820;48.738;9.092;2022-07-12T02:33:35;96938.59;;;16.63;nan
23303;BME280;11820;48.738;9.092;2022-07-12T02:36:01;96935.75;;;16.64;nan
23303;BME280;11820;48.738;9.092;2022-07-12T02:38:27;96937.47;;;16.52;nan
23303;BME280;11820;48.738;9.092;2022-07-12T02:40:53;96941.09;;;16.51;nan
23303;BME280;11820;48.738;9.092;2022-07-12T02:43:19;96936.03;;;16.56;nan
23303;BME280;11820;48.738;9.092;2022-07-12T02:45:45;96931.69;;;16.68;nan
23303;BME280;11820;48.738;9.092;2022-07-12T02:48:10;96940.59;;;16.36;nan
23303;BME280;11820;48.738;9.092;2022-07-12T02:50:37;96938.53;;;16.45;nan
23303;BME280;11820;48.738;9.092;2022-07-12T02:53:04;96935.94;;;16.38;nan
23303;BME280;11820;48.738;9.092;2022-07-12T02:55:30;96939.56;;;16.37;nan
23303;BME280;11820;48.738;9.092;2022-07-12T02:57:55;96936.69;;;16.15;nan
23303;BME280;11820;48.738;9.092;2022-07-12T03:00:20;96934.94;;;16.09;nan
23303;BME280;11820;48.738;9.092;2022-07-12T03:02:46;96932.78;;;16.30;nan
23303;BME280;11820;48.738;9.092;2022-07-12T03:05:11;96941.50;;;16.18;nan
23303;BME280;11820;48.738;9.092;2022-07-12T03:07:37;96940.78;;;16.04;nan
23303;BME280;11820;48.738;9.092;2022-07-12T03:10:03;96942.19;;;16.07;nan
23303;BME280;11820;48.738;9.092;2022-07-12T03:12:29;96943.22;;;16.30;nan
23303;BME280;11820;48.738;9.092;2022-07-12T03:14:54;96948.81;;;16.33;nan
23303;BME280;11820;48.738;9.092;2022-07-12T03:17:20;96943.94;;;16.13;nan
23303;BME280;11820;48.738;9.092;2022-07-12T03:19:46;96943.44;;;16.28;nan
23303;BME280;11820;48.738;9.092;2022-07-12T03:22:11;96949.13;;;16.19;nan
23303;BME280;11820;48.738;9.092;2022-07-12T03:24:36;96954.38;;;15.82;nan
23303;BME280;11820;48.738;9.092;2022-07-12T03:27:02;96954.28;;;15.95;nan
23303;BME280;11820;48.738;9.092;2022-07-12T03:29:27;96953.59;;;16.12;nan
23303;BME280;11820;48.738;9.092;2022-07-12T03:31:53;96954.19;;;16.14;nan
23303;BME280;11820;48.738;9.092;2022-07-12T03:34:18;96959.84;;;16.05;nan
23303;BME280;11820;48.738;9.092;2022-07-12T03:36:44;96952.88;;;15.99;nan
23303;BME280;11820;48.738;9.092;2022-07-12T03:39:10;96967.56;;;15.93;nan
23303;BME280;11820;48.738;9.092;2022-07-12T03:41:35;96968.88;;;16.02;nan
23303;BME280;11820;48.738;9.092;2022-07-12T03:44:00;96970.56;;;15.97;nan
23303;BME280;11820;48.738;9.092;2022-07-12T03:46:26;96975.84;;;16.15;nan
23303;BME280;11820;48.738;9.092;2022-07-12T03:48:51;96978.53;;;16.02;nan
23303;BME280;11820;48.738;9.092;2022-07-12T03:51:16;96976.88;;;16.07;nan
23303;BME280;11820;48.738;9.092;2022-07-12T03:53:42;96976.28;;;16.05;nan
23303;BME280;11820;48.738;9.092;2022-07-12T03:56:07;96985.53;;;16.08;nan
23303;BME280;11820;48.738;9.092;2022-07-12T03:58:35;96986.34;;;16.08;nan
23303;BME280;11820;48.738;9.092;2022-07-12T04:01:01;96988.31;;;16.13;nan
23303;BME280;11820;48.738;9.092;2022-07-12T04:03:26;96990.75;;;16.08;nan
23303;BME280;11820;48.738;9.092;2022-07-12T04:05:51;96983.78;;;15.95;nan
23303;BME280;11820;48.738;9.092;2022-07-12T04:08:17;96990.00;;;16.01;nan
23303;BME280;11820;48.738;9.092;2022-07-12T04:10:42;96989.56;;;16.04;nan
23303;BME280;11820;48.738;9.092;2022-07-12T04:13:07;97000.44;;;16.01;nan
23303;BME280;11820;48.738;9.092;2022-07-12T04:15:36;96998.41;;;16.03;nan
23303;BME280;11820;48.738;9.092;2022-07-12T04:18:01;96999.63;;;15.94;nan
23303;BME280;11820;48.738;9.092;2022-07-12T04:20:26;96993.50;;;15.75;nan
23303;BME280;11820;48.738;9.092;2022-07-12T04:22:52;96997.88;;;15.88;nan
23303;BME280;11820;48.738;9.092;2022-07-12T04:25:20;96990.03;;;15.88;nan
23303;BME280;11820;48.738;9.092;2022-07-12T04:27:45;96989.63;;;15.91;nan
23303;BME280;11820;48.738;9.092;2022-07-12T04:30:11;96983.19;;;16.00;nan
23303;BME280;11820;48.738;9.092;2022-07-12T04:32:36;96984.91;;;15.75;nan
23303;BME280;11820;48.738;9.092;2022-07-12T04:35:02;96988.16;;;16.01;nan
23303;BME280;11820;48.738;9.092;2022-07-12T04:37:27;96989.28;;;16.18;nan
23303;BME280;11820;48.738;9.092;2022-07-12T04:39:52;96993.75;;;16.11;nan
23303;BME280;11820;48.738;9.092;2022-07-12T04:42:21;96988.66;;;16.23;nan
23303;BME280;11820;48.738;9.092;2022-07-12T04:44:46;96992.38;;;16.39;nan
23303;BME280;11820;48.738;9.092;2022-07-12T04:47:11;96986.91;;;16.47;nan
23303;BME280;11820;48.738;9.092;2022-07-12T04:49:37;96991.13;;;16.48;nan
23303;BME280;11820;48.738;9.092;2022-07-12T04:52:03;96979.28;;;16.46;nan
23303;BME280;11820;48.738;9.092;2022-07-12T04:54:29;96985.63;;;16.56;nan
23303;BME280;11820;48.738;9.092;2022-07-12T04:56:54;96980.38;;;16.63;nan
23303;BME280;11820;48.738;9.092;2022-07-12T04:59:19;96982.91;;;16.69;nan
23303;BME280;11820;48.738;9.092;2022-07-12T05:01:45;96986.28;;;16.76;nan
23303;BME280;11820;48.738;9.092;2022-07-12T05:04:10;96986.88;;;16.78;nan
23303;BME280;11820;48.738;9.092;2022-07-12T05:06:36;96992.03;;;16.60;nan
23303;BME280;11820;48.738;9.092;2022-07-12T05:09:01;97002.91;;;16.57;nan
23303;BME280;11820;48.738;9.092;2022-07-12T05:11:26;96999.31;;;16.52;nan
23303;BME280;11820;48.738;9.092;2022-07-12T05:13:52;97004.03;;;16.68;nan
23303;BME280;11820;48.738;9.092;2022-07-12T05:16:17;97007.63;;;16.73;nan
23303;BME280;11820;48.738;9.092;2022-07-12T05:18:42;97006.84;;;16.66;nan
23303;BME280;11820;48.738;9.092;2022-07-12T05:21:08;97002.94;;;16.51;nan
23303;BME280;11820;48.738;9.092;2022-07-12T05:23:34;97008.63;;;16.72;nan
23303;BME280;11820;48.738;9.092;2022-07-12T05:25:59;97002.84;;;16.88;nan
23303;BME280;11820;48.738;9.092;2022-07-12T05:28:24;97010.59;;;17.01;nan
23303;BME280;11820;48.738;9.092;2022-07-12T05:30:50;97006.81;;;16.97;nan
23303;BME280;11820;48.738;9.092;2022-07-12T05:33:15;97001.72;;;17.02;nan
23303;BME280;11820;48.738;9.092;2022-07-12T05:35:40;97003.47;;;17.08;nan
23303;BME280;11820;48.738;9.092;2022-07-12T05:38:06;97006.63;;;17.17;nan
23303;BME280;11820;48.738;9.092;2022-07-12T05:40:31;97015.91;;;17.31;nan
23303;BME280;11820;48.738;9.092;2022-07-12T05:42:56;97010.44;;;17.39;nan
23303;BME280;11820;48.738;9.092;2022-07-12T05:45:22;97015.25;;;17.42;nan
23303;BME280;11820;48.738;9.092;2022-07-12T05:47:48;97012.63;;;17.42;nan
23303;BME280;11820;48.738;9.092;2022-07-12T05:50:13;97019.31;;;17.56;nan
23303;BME280;11820;48.738;9.092;2022-07-12T05:52:39;97030.34;;;17.58;nan
23303;BME280;11820;48.738;9.092;2022-07-12T05:55:23;97032.47;;;17.67;nan
23303;BME280;11820;48.738;9.092;2022-07-12T05:57:48;97031.56;;;17.73;nan
23303;BME280;11820;48.738;9.092;2022-07-12T06:00:13;97028.31;;;17.78;nan
23303;BME280;11820;48.738;9.092;2022-07-12T06:02:38;97031.06;;;17.83;nan
23303;BME280;11820;48.738;9.092;2022-07-12T06:05:04;97031.72;;;17.96;nan
23303;BME280;11820;48.738;9.092;2022-07-12T06:07:30;97030.03;;;18.01;nan
23303;BME280;11820;48.738;9.092;2022-07-12T06:09:56;97037.00;;;18.07;nan
23303;BME280;11820;48.738;9.092;2022-07-12T06:12:21;97037.69;;;18.03;nan
23303;BME280;11820;48.738;9.092;2022-07-12T06:14:46;97048.16;;;18.03;nan
23303;BME280;11820;48.738;9.092;2022-07-12T06:17:13;97039.16;;;18.10;nan
23303;BME280;11820;48.738;9.092;2022-07-12T06:19:38;97048.88;;;18.10;nan
23303;BME280;11820;48.738;9.092;2022-07-12T06:22:04;97045.81;;;18.13;nan
23303;BME280;11820;48.738;9.092;2022-07-12T06:24:29;97047.84;;;18.11;nan
23303;BME280;11820;48.738;9.092;2022-07-12T06:26:55;97051.53;;;18.21;nan
23303;BME280;11820;48.738;9.092;2022-07-12T06:29:20;97054.09;;;18.28;nan
23303;BME280;11820;48.738;9.092;2022-07-12T06:31:45;97055.25;;;18.14;nan
23303;BME280;11820;48.738;9.092;2022-07-12T06:34:10;97053.88;;;18.29;nan
23303;BME280;11820;48.738;9.092;2022-07-12T06:36:36;97057.44;;;18.35;nan
23303;BME280;11820;48.738;9.092;2022-07-12T06:39:01;97059.41;;;18.39;nan
23303;BME280;11820;48.738;9.092;2022-07-12T06:41:26;97052.19;;;18.35;nan
23303;BME280;11820;48.738;9.092;2022-07-12T06:43:54;97057.09;;;18.43;nan
23303;BME280;11820;48.738;9.092;2022-07-12T06:46:19;97051.13;;;18.54;nan
23303;BME280;11820;48.738;9.092;2022-07-12T06:48:45;97058.66;;;18.62;nan
23303;BME280;11820;48.738;9.092;2022-07-12T06:51:10;97060.72;;;18.60;nan
23303;BME280;11820;48.738;9.092;2022-07-12T06:53:36;97060.72;;;18.60;nan
23303;BME280;11820;48.738;9.092;2022-07-12T06:56:01;97058.91;;;18.72;nan
23303;BME280;11820;48.738;9.092;2022-07-12T06:58:26;97058.00;;;18.66;nan
23303;BME280;11820;48.738;9.092;2022-07-12T07:00:52;97053.22;;;18.75;nan
23303;BME280;11820;48.738;9.092;2022-07-12T07:03:17;97063.38;;;18.83;nan
23303;BME280;11820;48.738;9.092;2022-07-12T07:05:43;97059.63;;;18.79;nan
23303;BME280;11820;48.738;9.092;2022-07-12T07:08:08;97059.03;;;18.88;nan
23303;BME280;11820;48.738;9.092;2022-07-12T07:10:33;97066.13;;;18.88;nan
23303;BME280;11820;48.738;9.092;2022-07-12T07:13:00;97067.53;;;19.02;nan
23303;BME280;11820;48.738;9.092;2022-07-12T07:15:26;97067.97;;;19.10;nan
23303;BME280;11820;48.738;9.092;2022-07-12T07:17:52;97076.69;;;19.22;nan
23303;BME280;11820;48.738;9.092;2022-07-12T07:20:17;97073.16;;;19.17;nan
23303;BME280;11820;48.738;9.092;2022-07-12T07:22:43;97075.19;;;19.15;nan
23303;BME280;11820;48.738;9.092;2022-07-12T07:25:08;97077.28;;;19.24;nan
23303;BME280;11820;48.738;9.092;2022-07-12T07:27:34;97083.53;;;19.23;nan
23303;BME280;11820;48.738;9.092;2022-07-12T07:29:59;97077.47;;;19.23;nan
23303;BME280;11820;48.738;9.092;2022-07-12T07:32:43;97076.69;;;19.22;nan
23303;BME280;11820;48.738;9.092;2022-07-12T07:35:10;97080.94;;;19.35;nan
23303;BME280;11820;48.738;9.092;2022-07-12T07:37:35;97080.38;;;19.44;nan
23303;BME280;11820;48.738;9.092;2022-07-12T07:40:01;97078.97;;;19.53;nan
23303;BME280;11820;48.738;9.092;2022-07-12T07:42:27;97078.16;;;19.64;nan
23303;BME280;11820;48.738;9.092;2022-07-12T07:44:53;97079.44;;;19.62;nan
23303;BME280;11820;48.738;9.092;2022-07-12T07:47:21;97080.94;;;19.58;nan
23303;BME280;11820;48.738;9.092;2022-07-12T07:49:46;97082.84;;;19.62;nan
23303;BME280;11820;48.738;9.092;2022-07-12T07:52:11;97081.59;;;19.65;nan
23303;BME280;11820;48.738;9.092;2022-07-12T07:54:37;97085.34;;;19.68;nan
23303;BME280;11820;48.738;9.092;2022-07-12T07:57:02;97090.03;;;19.78;nan
23303;BME280;11820;48.738;9.092;2022-07-12T07:59:28;97087.75;;;19.81;nan
23303;BME280;11820;48.738;9.092;2022-07-12T08:01:54;97089.34;;;19.82;nan
23303;BME280;11820;48.738;9.092;2022-07-12T08:04:21;97090.69;;;19.96;nan
23303;BME280;11820;48.738;9.092;2022-07-12T08:06:47;97095.94;;;19.96;nan
23303;BME280;11820;48.738;9.092;2022-07-12T08:09:13;97080.28;;;20.13;nan
23303;BME280;11820;48.738;9.092;2022-07-12T08:11:39;97079.69;;;20.22;nan
23303;BME280;11820;48.738;9.092;2022-07-12T08:14:05;97074.81;;;20.42;nan
23303;BME280;11820;48.738;9.092;2022-07-12T08:16:32;97069.91;;;20.46;nan
23303;BME280;11820;48.738;9.092;2022-07-12T08:18:57;97070.78;;;20.23;nan
23303;BME280;11820;48.738;9.092;2022-07-12T08:21:23;97070.59;;;20.13;nan
23303;BME280;11820;48.738;9.092;2022-07-12T08:23:49;97074.13;;;20.19;nan
23303;BME280;11820;48.738;9.092;2022-07-12T08:26:14;97074.91;;;20.47;nan
23303;BME280;11820;48.738;9.092;2022-07-12T08:28:40;97083.00;;;20.57;nan
23303;BME280;11820;48.738;9.092;2022-07-12T08:31:05;97075.34;;;20.56;nan
23303;BME280;11820;48.738;9.092;2022-07-12T08:33:31;97074.31;;;20.57;nan
23303;BME280;11820;48.738;9.092;2022-07-12T08:35:56;97076.72;;;20.86;nan
23303;BME280;11820;48.738;9.092;2022-07-12T08:38:21;97078.38;;;20.64;nan
23303;BME280;11820;48.738;9.092;2022-07-12T08:40:47;97082.59;;;20.65;nan
23303;BME280;11820;48.738;9.092;2022-07-12T08:43:13;97082.59;;;20.65;nan
23303;BME280;11820;48.738;9.092;2022-07-12T08:45:38;97078.66;;;20.51;nan
23303;BME280;11820;48.738;9.092;2022-07-12T08:48:06;97082.31;;;20.50;nan
23303;BME280;11820;48.738;9.092;2022-07-12T08:50:32;97079.50;;;20.68;nan
23303;BME280;11820;48.738;9.092;2022-07-12T08:52:58;97079.94;;;20.77;nan
23303;BME280;11820;48.738;9.092;2022-07-12T08:55:25;97085.25;;;21.10;nan
23303;BME280;11820;48.738;9.092;2022-07-12T08:57:53;97090.75;;;21.25;nan
23303;BME280;11820;48.738;9.092;2022-07-12T09:00:20;97090.13;;;21.34;nan
23303;BME280;11820;48.738;9.092;2022-07-12T09:02:51;97098.41;;;21.59;nan
23303;BME280;11820;48.738;9.092;2022-07-12T09:05:39;97096.47;;;21.54;nan
23303;BME280;11820;48.738;9.092;2022-07-12T09:08:08;97094.63;;;21.55;nan
23303;BME280;11820;48.738;9.092;2022-07-12T09:10:51;97097.25;;;21.55;nan
23303;BME280;11820;48.738;9.092;2022-07-12T09:13:20;97106.38;;;21.47;nan
23303;BME280;11820;48.738;9.092;2022-07-12T09:15:46;97105.72;;;21.40;nan
23303;BME280;11820;48.738;9.092;2022-07-12T09:18:15;97106.53;;;21.41;nan
23303;BME280;11820;48.738;9.092;2022-07-12T09:20:50;97101.00;;;21.42;nan
23303;BME280;11820;48.738;9.092;2022-07-12T09:23:16;97096.50;;;21.38;nan
23303;BME280;11820;48.738;9.092;2022-07-12T09:25:46;97101.47;;;21.56;nan
23303;BME280;11820;48.738;9.092;2022-07-12T09:28:11;97096.00;;;21.57;nan
23303;BME280;11820;48.738;9.092;2022-07-12T09:30:46;97100.16;;;21.37;nan
23303;BME280;11820;48.738;9.092;2022-07-12T09:33:11;97093.88;;;21.38;nan
23303;BME280;11820;48.738;9.092;2022-07-12T09:38:49;97089.06;;;21.68;nan
23303;BME280;11820;48.738;9.092;2022-07-12T09:41:19;97097.94;;;21.62;nan
23303;BME280;11820;48.738;9.092;2022-07-12T09:43:44;97100.47;;;21.40;nan
23303;BME280;11820;48.738;9.092;2022-07-12T09:46:10;97092.03;;;21.22;nan
23303;BME280;11820;48.738;9.092;2022-07-12T09:48:37;97098.31;;;21.38;nan
23303;BME280;11820;48.738;9.092;2022-07-12T09:51:05;97095.59;;;21.33;nan
23303;BME280;11820;48.738;9.092;2022-07-12T09:53:38;97102.25;;;21.19;nan
23303;BME280;11820;48.738;9.092;2022-07-12T09:56:10;97101.41;;;21.51;nan
23303;BME280;11820;48.738;9.092;2022-07-12T09:58:40;97103.19;;;21.78;nan
23303;BME280;11820;48.738;9.092;2022-07-12T10:01:10;97096.75;;;21.91;nan
23303;BME280;11820;48.738;9.092;2022-07-12T10:03:36;97092.91;;;21.98;nan
23303;BME280;11820;48.738;9.092;2022-07-12T10:06:06;97088.44;;;21.99;nan
23303;BME280;11820;48.738;9.092;2022-07-12T10:08:32;97098.69;;;21.95;nan
23303;BME280;11820;48.738;9.092;2022-07-12T10:10:58;97101.88;;;21.81;nan
23303;BME280;11820;48.738;9.092;2022-07-12T10:13:24;97102.47;;;21.83;nan
23303;BME280;11820;48.738;9.092;2022-07-12T10:15:50;97113.38;;;21.58;nan
23303;BME280;11820;48.738;9.092;2022-07-12T10:18:20;97102.63;;;21.98;nan
23303;BME280;11820;48.738;9.092;2022-07-12T10:20:47;97099.97;;;22.36;nan
23303;BME280;11820;48.738;9.092;2022-07-12T10:25:45;97105.91;;;22.26;nan
23303;BME280;11820;48.738;9.092;2022-07-12T10:28:12;97101.00;;;22.35;nan
23303;BME280;11820;48.738;9.092;2022-07-12T10:30:48;97099.50;;;22.39;nan
23303;BME280;11820;48.738;9.092;2022-07-12T10:33:18;97105.78;;;22.59;nan
23303;BME280;11820;48.738;9.092;2022-07-12T10:36:06;97107.13;;;22.88;nan
23303;BME280;11820;48.738;9.092;2022-07-12T10:38:33;97092.72;;;23.01;nan
23303;BME280;11820;48.738;9.092;2022-07-12T10:41:16;97090.28;;;22.94;nan
23303;BME280;11820;48.738;9.092;2022-07-12T10:43:43;97094.09;;;22.77;nan
23303;BME280;11820;48.738;9.092;2022-07-12T10:46:27;97083.97;;;22.95;nan
23303;BME280;11820;48.738;9.092;2022-07-12T10:49:28;97083.97;;;23.21;nan
23303;BME280;11820;48.738;9.092;2022-07-12T10:54:38;97081.09;;;23.23;nan
23303;BME280;11820;48.738;9.092;2022-07-12T10:57:06;97074.34;;;23.42;nan
23303;BME280;11820;48.738;9.092;2022-07-12T10:59:37;97074.66;;;23.45;nan
23303;BME280;11820;48.738;9.092;2022-07-12T11:02:03;97070.91;;;23.36;nan
23303;BME280;11820;48.738;9.092;2022-07-12T11:04:29;97076.19;;;23.36;nan
23303;BME280;11820;48.738;9.092;2022-07-12T11:06:55;97068.88;;;23.53;nan
23303;BME280;11820;48.738;9.092;2022-07-12T11:09:23;97072.84;;;23.51;nan
23303;BME280;11820;48.738;9.092;2022-07-12T11:11:49;97079.03;;;23.71;nan
23303;BME280;11820;48.738;9.092;2022-07-12T11:14:26;97073.59;;;23.46;nan
23303;BME280;11820;48.738;9.092;2022-07-12T11:16:53;97078.94;;;23.56;nan
23303;BME280;11820;48.738;9.092;2022-07-12T11:19:27;97077.97;;;23.67;nan
23303;BME280;11820;48.738;9.092;2022-07-12T11:21:53;97073.84;;;23.86;nan
23303;BME280;11820;48.738;9.092;2022-07-12T11:24:28;97080.66;;;23.77;nan
23303;BME280;11820;48.738;9.092;2022-07-12T11:26:54;97075.00;;;24.05;nan
23303;BME280;11820;48.738;9.092;2022-07-12T11:29:20;97077.44;;;23.70;nan
23303;BME280;11820;48.738;9.092;2022-07-12T11:31:46;97078.19;;;24.07;nan
23303;BME280;11820;48.738;9.092;2022-07-12T11:34:25;97069.13;;;23.88;nan
23303;BME280;11820;48.738;9.092;2022-07-12T11:36:55;97067.38;;;24.14;nan
23303;BME280;11820;48.738;9.092;2022-07-12T11:39:35;97075.28;;;24.09;nan
23303;BME280;11820;48.738;9.092;2022-07-12T11:42:01;97066.72;;;23.87;nan
23303;BME280;11820;48.738;9.092;2022-07-12T11:44:49;97070.53;;;24.06;nan
23303;BME280;11820;48.738;9.092;2022-07-12T11:47:16;97063.69;;;24.15;nan
23303;BME280;11820;48.738;9.092;2022-07-12T11:49:44;97059.22;;;24.25;nan
23303;BME280;11820;48.738;9.092;2022-07-12T11:52:12;97070.09;;;24.34;nan
23303;BME280;11820;48.738;9.092;2022-07-12T11:54:38;97069.03;;;24.25;nan
23303;BME280;11820;48.738;9.092;2022-07-12T11:57:06;97065.97;;;24.63;nan
23303;BME280;11820;48.738;9.092;2022-07-12T11:59:31;97063.97;;;24.23;nan
23303;BME280;11820;48.738;9.092;2022-07-12T12:02:06;97063.56;;;24.61;nan
23303;BME280;11820;48.738;9.092;2022-07-12T12:04:47;97067.81;;;24.57;nan
23303;BME280;11820;48.738;9.092;2022-07-12T12:07:13;97064.41;;;24.72;nan
23303;BME280;11820;48.738;9.092;2022-07-12T12:12:43;97059.16;;;25.11;nan
23303;BME280;11820;48.738;9.092;2022-07-12T12:15:14;97064.16;;;25.13;nan
23303;BME280;11820;48.738;9.092;2022-07-12T12:17:51;97061.53;;;25.03;nan
23303;BME280;11820;48.738;9.092;2022-07-12T12:20:19;97049.38;;;25.22;nan
23303;BME280;11820;48.738;9.092;2022-07-12T12:22:46;97050.13;;;25.12;nan
23303;BME280;11820;48.738;9.092;2022-07-12T12:25:14;97041.41;;;24.97;nan
23303;BME280;11820;48.738;9.092;2022-07-12T12:27:53;97040.56;;;24.57;nan
23303;BME280;11820;48.738;9.092;2022-07-12T12:30:19;97037.94;;;24.62;nan
23303;BME280;11820;48.738;9.092;2022-07-12T12:32:56;97028.72;;;24.89;nan
23303;BME280;11820;48.738;9.092;2022-07-12T12:35:30;97032.69;;;25.21;nan
23303;BME280;11820;48.738;9.092;2022-07-12T12:38:00;97034.50;;;25.36;nan
23303;BME280;11820;48.738;9.092;2022-07-12T12:40:28;97029.25;;;25.26;nan
23303;BME280;11820;48.738;9.092;2022-07-12T12:43:11;97035.00;;;25.63;nan
23303;BME280;11820;48.738;9.092;2022-07-12T12:45:55;97033.41;;;25.57;nan
23303;BME280;11820;48.738;9.092;2022-07-12T12:48:23;97031.31;;;25.54;nan
23303;BME280;11820;48.738;9.092;2022-07-12T12:50:50;97035.78;;;25.63;nan
23303;BME280;11820;48.738;9.092;2022-07-12T12:53:18;97041.34;;;25.62;nan
23303;BME280;11820;48.738;9.092;2022-07-12T12:55:45;97040.34;;;25.48;nan
23303;BME280;11820;48.738;9.092;2022-07-12T12:58:12;97032.84;;;25.80;nan
23303;BME280;11820;48.738;9.092;2022-07-12T13:00:41;97025.66;;;25.90;nan
23303;BME280;11820;48.738;9.092;2022-07-12T13:03:09;97026.13;;;26.12;nan
23303;BME280;11820;48.738;9.092;2022-07-12T13:05:35;97020.75;;;26.22;nan
23303;BME280;11820;48.738;9.092;2022-07-12T13:08:02;97021.59;;;26.18;nan
23303;BME280;11820;48.738;9.092;2022-07-12T13:10:29;97023.28;;;25.94;nan
23303;BME280;11820;48.738;9.092;2022-07-12T13:12:54;97032.59;;;26.40;nan
23303;BME280;11820;48.738;9.092;2022-07-12T13:15:20;97026.75;;;26.38;nan
23303;BME280;11820;48.738;9.092;2022-07-12T13:17:45;97028.81;;;26.56;nan
23303;BME280;11820;48.738;9.092;2022-07-12T13:20:11;97028.31;;;26.54;nan
23303;BME280;11820;48.738;9.092;2022-07-12T13:22:39;97027.16;;;26.64;nan
23303;BME280;11820;48.738;9.092;2022-07-12T13:25:04;97029.28;;;26.63;nan
23303;BME280;11820;48.738;9.092;2022-07-12T13:27:30;97031.03;;;26.34;nan
23303;BME280;11820;48.738;9.092;2022-07-12T13:29:56;97030.16;;;26.58;nan
23303;BME280;11820;48.738;9.092;2022-07-12T13:32:22;97026.38;;;26.64;nan
23303;BME280;11820;48.738;9.092;2022-07-12T13:34:47;97026.91;;;26.66;nan